Time;durP1;ratioP1;P1;durP2;ratioP2;P2;SDS_P1;SDS_P2;PMS_P1;PMS_P2;Temp;Humidity;BMP_temperature;BMP_pressure;BME280_temperature;BME280_humidity;BME280_pressure;Samples;Min_cycle;Max_cycle;Signal;HPM_P1;HPM_P2
2023/11/22 00:01:52;;;;;;;21.10;12.00;;;;;;;-1.45;89.60;98757.19;105877;1254;72651;-31
2023/11/22 00:04:19;;;;;;;19.60;12.50;;;;;;;-1.32;88.35;98758.22;105499;1254;61082;-31
2023/11/22 00:06:47;;;;;;;23.60;12.20;;;;;;;-1.56;89.89;98757.23;105612;1254;61142;-31
2023/11/22 00:09:14;;;;;;;16.40;9.60;;;;;;;-1.75;90.54;98752.63;105543;1257;73654;-31
2023/11/22 00:11:41;;;;;;;17.60;10.10;;;;;;;-1.16;89.42;98755.25;105495;1254;74203;-31
2023/11/22 00:14:08;;;;;;;23.60;13.60;;;;;;;-1.32;87.90;98748.54;105653;1254;72654;-31
2023/11/22 00:16:37;;;;;;;20.00;12.00;;;;;;;-1.33;87.92;98748.40;105848;1257;61125;-31
2023/11/22 00:19:06;;;;;;;22.30;12.80;;;;;;;-1.11;87.44;98750.13;105552;1257;61161;-30
2023/11/22 00:21:33;;;;;;;23.10;13.20;;;;;;;-1.52;88.44;98747.20;105855;1255;73851;-30
2023/11/22 00:23:59;;;;;;;19.40;13.10;;;;;;;-1.80;89.97;98752.64;105825;1258;74382;-30
2023/11/22 00:26:26;;;;;;;15.00;9.80;;;;;;;-1.93;91.35;98760.08;105717;1254;73085;-30
2023/11/22 00:28:55;;;;;;;15.90;9.40;;;;;;;-1.19;89.24;98757.77;105894;1255;61160;-30
2023/11/22 00:31:22;;;;;;;15.10;9.40;;;;;;;-1.09;87.34;98757.91;105895;1255;61104;-30
2023/11/22 00:33:51;;;;;;;21.10;10.40;;;;;;;-0.88;86.06;98755.55;105853;1254;73688;-30
2023/11/22 00:36:18;;;;;;;21.30;11.80;;;;;;;-1.06;86.27;98756.41;105654;1254;74294;-31
2023/11/22 00:38:45;;;;;;;16.00;11.20;;;;;;;-1.49;88.18;98759.36;105860;1254;72099;-30
2023/11/22 00:41:14;;;;;;;23.50;12.10;;;;;;;-1.94;90.05;98760.95;105619;1254;61134;-30
2023/11/22 00:43:41;;;;;;;17.50;11.40;;;;;;;-1.94;91.05;98771.17;105592;1260;61164;-30
2023/11/22 00:46:08;;;;;;;19.70;12.40;;;;;;;-1.99;91.66;98775.94;105863;1255;73895;-30
2023/11/22 00:48:35;;;;;;;18.90;12.40;;;;;;;-1.66;90.28;98786.71;105650;1256;74172;-30
2023/11/22 00:51:08;;;;;;;18.60;12.00;;;;;;;-1.71;90.03;98792.84;105814;1254;72653;-30
2023/11/22 00:53:36;;;;;;;17.80;9.90;;;;;;;-1.64;89.87;98789.38;105581;1254;61077;-29
2023/11/22 00:56:05;;;;;;;23.80;15.10;;;;;;;-1.91;90.99;98795.60;105673;1257;61056;-30
2023/11/22 00:58:32;;;;;;;22.00;11.40;;;;;;;-2.13;92.47;98804.83;105646;1254;73659;-29
2023/11/22 01:00:59;;;;;;;14.70;8.30;;;;;;;-1.96;91.93;98808.33;105778;1257;74219;-29
2023/11/22 01:03:26;;;;;;;20.30;11.60;;;;;;;-1.93;91.27;98805.52;105850;1257;73144;-30
2023/11/22 01:05:54;;;;;;;18.90;11.30;;;;;;;-1.74;90.23;98804.88;105697;1254;61056;-29
2023/11/22 01:08:21;;;;;;;18.30;11.20;;;;;;;-1.93;90.57;98801.23;105695;1256;61157;-29
2023/11/22 01:12:32;;;;;;;18.90;12.00;;;;;;;-2.13;91.86;98794.95;103425;1289;600073;-29
2023/11/22 01:15:00;;;;;;;20.80;12.60;;;;;;;-2.19;92.55;98801.94;104899;1272;61186;-29
2023/11/22 01:17:28;;;;;;;16.30;9.60;;;;;;;-2.21;92.81;98796.22;105714;1254;61171;-29
2023/11/22 01:19:57;;;;;;;15.90;10.00;;;;;;;-2.09;92.38;98797.88;105770;1254;71072;-29
2023/11/22 01:22:27;;;;;;;19.50;11.20;;;;;;;-1.74;90.28;98797.20;105824;1254;72866;-29
2023/11/22 01:24:58;;;;;;;12.20;8.90;;;;;;;-1.56;89.04;98794.88;105626;1260;3568885;-28
2023/11/22 01:27:27;;;;;;;15.00;9.30;;;;;;;-1.93;89.53;98786.45;105744;1251;61176;-29
2023/11/22 01:29:55;;;;;;;16.20;10.50;;;;;;;-1.92;89.77;98785.23;105786;1251;61173;-29
2023/11/22 01:32:24;;;;;;;20.70;12.00;;;;;;;-2.48;92.01;98783.48;105972;1251;61048;-29
2023/11/22 01:34:51;;;;;;;15.30;9.10;;;;;;;-2.36;92.65;98787.71;105891;1251;72209;-29
2023/11/22 01:44:59;;;;;;;20.20;9.60;;;;;;;-1.98;89.93;98798.18;103428;1282;600148;-29
2023/11/22 01:47:27;;;;;;;18.50;10.60;;;;;;;-2.24;90.98;98798.55;105656;1258;61210;-29
2023/11/22 01:49:56;;;;;;;14.50;6.40;;;;;;;-2.43;92.56;98805.77;105688;1259;61162;-29
2023/11/22 01:52:24;;;;;;;16.00;9.90;;;;;;;-1.97;90.72;98810.23;105621;1261;72953;-29
2023/11/22 01:54:52;;;;;;;12.30;8.20;;;;;;;-1.87;89.17;98811.27;105621;1259;74309;-29
2023/11/22 01:57:20;;;;;;;19.90;11.70;;;;;;;-2.05;89.55;98812.19;105706;1261;72655;-29
2023/11/22 02:07:28;;;;;;;13.40;9.10;;;;;;;-2.52;91.57;98818.98;102612;1296;599922;-29
2023/11/22 02:09:57;;;;;;;20.70;10.20;;;;;;;-2.22;89.68;98822.27;105666;1260;61186;-29
2023/11/22 02:12:25;;;;;;;16.90;10.80;;;;;;;-1.93;87.78;98826.60;105665;1254;61046;-30
2023/11/22 02:14:53;;;;;;;19.30;11.70;;;;;;;-2.24;88.51;98830.88;105630;1255;71022;-29
2023/11/22 02:17:22;;;;;;;14.60;10.30;;;;;;;-2.34;89.26;98838.52;105672;1255;74216;-29
2023/11/22 02:19:50;;;;;;;15.10;9.90;;;;;;;-2.43;89.43;98842.34;105693;1258;72700;-30
2023/11/22 02:22:18;;;;;;;16.70;10.20;;;;;;;-2.70;90.12;98846.41;103267;1258;61243;-29
2023/11/22 02:24:46;;;;;;;11.30;7.40;;;;;;;-2.71;91.29;98847.81;105842;1251;72229;-30
2023/11/22 02:27:13;;;;;;;14.10;9.30;;;;;;;-2.41;89.78;98852.48;105933;1251;74276;-30
2023/11/22 02:29:41;;;;;;;12.40;8.20;;;;;;;-2.35;89.16;98849.90;105894;1254;72653;-29
2023/11/22 02:32:10;;;;;;;16.60;9.40;;;;;;;-2.52;88.91;98839.23;105888;1251;61122;-30
2023/11/22 02:42:23;;;;;;;12.10;7.20;;;;;;;-3.10;90.62;98839.41;102710;1294;599500;-29
2023/11/22 02:44:51;;;;;;;13.70;6.10;;;;;;;-2.85;89.58;98843.61;105264;1261;61192;-30
2023/11/22 02:47:19;;;;;;;12.50;6.80;;;;;;;-2.68;87.82;98839.88;105413;1257;60993;-29
2023/11/22 02:49:47;;;;;;;12.40;7.40;;;;;;;-2.69;87.12;98842.44;105365;1257;70938;-30
2023/11/22 02:52:16;;;;;;;18.30;9.80;;;;;;;-3.12;88.64;98843.54;105551;1258;74265;-30
2023/11/22 02:54:47;;;;;;;13.70;8.90;;;;;;;-3.07;89.11;98849.52;105169;1266;72655;-29
2023/11/22 02:57:15;;;;;;;16.90;8.50;;;;;;;-3.30;89.70;98850.67;102803;1264;61256;-30
2023/11/22 02:59:43;;;;;;;17.30;10.60;;;;;;;-3.37;90.42;98859.18;105228;1260;61131;-29
2023/11/22 03:09:55;;;;;;;15.20;9.60;;;;;;;-2.96;88.00;98873.33;102606;1295;599961;-29
2023/11/22 03:12:23;;;;;;;18.60;9.90;;;;;;;-3.34;89.68;98883.05;105618;1262;61141;-30
2023/11/22 03:14:51;;;;;;;18.10;10.70;;;;;;;-3.53;90.87;98882.20;105607;1260;61142;-30
2023/11/22 03:17:19;;;;;;;19.60;11.10;;;;;;;-3.36;90.64;98882.58;105611;1258;70041;-30
2023/11/22 03:19:47;;;;;;;21.70;12.70;;;;;;;-2.98;89.06;98879.33;105590;1255;74577;-30
2023/11/22 03:22:15;;;;;;;12.10;8.20;;;;;;;-3.03;87.93;98882.86;105443;1257;71413;-30
2023/11/22 03:24:43;;;;;;;28.80;13.80;;;;;;;-3.15;87.57;98887.80;103142;1254;3451102;-30
2023/11/22 03:27:11;;;;;;;24.00;12.80;;;;;;;-3.18;88.08;98886.86;105704;1253;61611;-30
2023/11/22 03:29:39;;;;;;;19.00;11.60;;;;;;;-3.47;88.72;98886.78;105830;1257;72206;-30
2023/11/22 03:32:07;;;;;;;15.10;8.30;;;;;;;-3.48;88.47;98885.63;105919;1257;73162;-30
2023/11/22 03:34:35;;;;;;;15.50;9.30;;;;;;;-3.65;89.34;98892.85;105668;1254;71395;-30
2023/11/22 03:37:03;;;;;;;20.00;12.20;;;;;;;-3.44;89.19;98900.46;105680;1258;61201;-30
2023/11/22 03:39:31;;;;;;;19.10;10.50;;;;;;;-3.10;87.91;98900.91;105729;1254;61029;-30
2023/11/22 03:42:00;;;;;;;17.80;10.60;;;;;;;-2.74;86.74;98904.48;105713;1259;73047;-30
2023/11/22 03:44:28;;;;;;;17.70;10.50;;;;;;;-2.92;86.82;98904.46;105660;1258;73230;-30
2023/11/22 03:46:56;;;;;;;18.40;9.60;;;;;;;-3.44;88.19;98903.36;105559;1259;72594;-30
2023/11/22 03:49:24;;;;;;;17.20;10.50;;;;;;;-3.65;89.36;98908.98;105330;1257;61058;-30
2023/11/22 03:51:52;;;;;;;23.30;12.60;;;;;;;-3.79;89.61;98912.89;105349;1254;61079;-29
2023/11/22 03:54:20;;;;;;;12.80;8.30;;;;;;;-3.74;90.10;98919.73;105689;1257;71818;-30
2023/11/22 03:56:48;;;;;;;25.60;14.70;;;;;;;-3.27;87.58;98922.23;105648;1254;74288;-30
2023/11/22 03:59:16;;;;;;;20.90;12.20;;;;;;;-3.67;88.39;98919.39;105677;1254;72707;-30
2023/11/22 04:01:44;;;;;;;29.10;17.10;;;;;;;-3.41;88.04;98922.42;105657;1259;61128;-30
2023/11/22 04:04:12;;;;;;;25.70;16.00;;;;;;;-3.59;87.92;98928.33;105692;1259;61100;-30
2023/11/22 04:06:40;;;;;;;63.40;29.40;;;;;;;-3.90;89.47;98937.59;105668;1254;73080;-30
2023/11/22 04:09:08;;;;;;;30.50;18.10;;;;;;;-3.96;89.89;98938.73;105597;1254;73063;-30
2023/11/22 04:11:36;;;;;;;42.80;24.90;;;;;;;-3.95;90.35;98946.86;105601;1255;73155;-30
2023/11/22 04:14:04;;;;;;;49.10;24.20;;;;;;;-3.71;89.08;98946.62;105589;1259;61113;-30
2023/11/22 04:16:32;;;;;;;46.70;26.90;;;;;;;-3.73;88.33;98955.67;105639;1258;61135;-30
2023/11/22 04:19:01;;;;;;;41.40;21.10;;;;;;;-3.64;88.57;98961.39;105599;1254;71926;-30
2023/11/22 04:21:29;;;;;;;51.70;26.20;;;;;;;-3.97;89.15;98960.33;105671;1255;74437;-30
2023/11/22 04:23:57;;;;;;;30.00;14.30;;;;;;;-3.98;89.71;98967.12;105666;1254;71359;-30
2023/11/22 04:26:25;;;;;;;30.30;15.20;;;;;;;-4.07;89.68;98964.95;105660;1255;61071;-30
2023/11/22 04:28:53;;;;;;;24.30;11.70;;;;;;;-3.76;89.19;98972.88;105738;1254;61397;-30
2023/11/22 04:31:21;;;;;;;40.60;18.50;;;;;;;-3.68;87.96;98969.13;105946;1256;71803;-30
2023/11/22 04:33:49;;;;;;;45.50;19.40;;;;;;;-3.43;87.19;98968.84;105627;1257;73218;-30
2023/11/22 04:36:18;;;;;;;57.00;30.80;;;;;;;-3.43;86.96;98974.78;105899;1254;72652;-30
2023/11/22 04:38:49;;;;;;;26.20;13.60;;;;;;;-3.73;87.64;98978.40;105681;1254;61135;-30
2023/11/22 04:41:18;;;;;;;36.50;15.90;;;;;;;-3.98;88.83;98978.98;105697;1259;61180;-30
2023/11/22 04:43:46;;;;;;;29.80;15.70;;;;;;;-4.07;89.53;98986.84;105703;1254;73045;-30
2023/11/22 04:46:14;;;;;;;57.50;21.20;;;;;;;-3.93;89.27;98989.05;105736;1254;73052;-30
2023/11/22 04:48:44;;;;;;;55.50;20.70;;;;;;;-3.79;87.95;98986.52;105640;1259;72657;-30
2023/11/22 04:51:13;;;;;;;31.00;12.90;;;;;;;-3.69;87.78;98994.94;105738;1259;61138;-30
2023/11/22 04:53:42;;;;;;;32.90;13.10;;;;;;;-3.66;87.68;98998.61;105653;1254;61020;-30
2023/11/22 05:03:49;;;;;;;20.40;10.60;;;;;;;-3.45;87.41;99015.58;103368;1282;600134;-30
2023/11/22 05:06:17;;;;;;;26.40;12.30;;;;;;;-3.41;85.64;99010.55;105226;1259;61151;-30
2023/11/22 05:08:45;;;;;;;31.50;15.00;;;;;;;-3.81;86.67;99014.21;105619;1257;61113;-30
2023/11/22 05:11:15;;;;;;;43.00;19.90;;;;;;;-4.09;87.88;99012.13;105611;1257;70984;-30
2023/11/22 05:13:43;;;;;;;28.40;12.80;;;;;;;-4.17;88.81;99020.13;105531;1256;74482;-30
2023/11/22 05:16:11;;;;;;;25.30;13.30;;;;;;;-4.27;89.18;99020.65;105538;1261;71671;-30
2023/11/22 05:18:39;;;;;;;28.40;12.70;;;;;;;-4.23;89.53;99024.30;103157;1253;61809;-31
2023/11/22 05:21:07;;;;;;;37.60;18.70;;;;;;;-4.34;89.88;99024.70;105904;1254;72226;-30
2023/11/22 05:23:37;;;;;;;20.40;11.50;;;;;;;-3.98;88.98;99029.17;105677;1259;73486;-31
2023/11/22 05:26:05;;;;;;;20.90;12.90;;;;;;;-4.02;88.12;99036.75;105712;1254;73483;-30
2023/11/22 05:28:34;;;;;;;18.70;11.00;;;;;;;-4.02;88.44;99040.98;105686;1257;61110;-31
2023/11/22 05:31:02;;;;;;;19.70;10.30;;;;;;;-4.27;89.38;99041.01;105627;1253;61001;-28
2023/11/22 05:33:31;;;;;;;29.60;16.00;;;;;;;-4.49;90.18;99039.25;105751;1258;73285;-29
2023/11/22 05:35:59;;;;;;;27.30;13.90;;;;;;;-4.59;90.83;99050.63;105775;1253;74365;-29
2023/11/22 05:38:27;;;;;;;21.90;11.60;;;;;;;-4.65;90.72;99058.04;105658;1256;74078;-29
2023/11/22 05:40:55;;;;;;;19.80;10.70;;;;;;;-4.17;89.14;99064.54;105632;1253;61113;-29
2023/11/22 05:43:26;;;;;;;18.30;9.20;;;;;;;-4.20;87.81;99069.84;105596;1259;61109;-29
2023/11/22 05:45:55;;;;;;;30.20;17.70;;;;;;;-4.12;87.63;99075.61;105634;1254;73472;-29
2023/11/22 05:48:22;;;;;;;17.10;9.80;;;;;;;-4.39;87.81;99077.86;105658;1254;74345;-29
2023/11/22 05:50:51;;;;;;;15.60;8.40;;;;;;;-4.71;89.35;99082.36;105609;1253;71471;-29
2023/11/22 05:53:21;;;;;;;17.90;9.50;;;;;;;-4.75;89.65;99092.77;105655;1259;61144;-29
2023/11/22 05:55:48;;;;;;;18.60;10.70;;;;;;;-4.35;89.00;99094.05;105708;1253;61130;-29
2023/11/22 05:58:17;;;;;;;18.70;9.00;;;;;;;-4.21;88.18;99094.97;105675;1254;71443;-29
2023/11/22 06:00:47;;;;;;;15.60;8.20;;;;;;;-4.09;87.04;99096.25;105723;1259;73158;-29
2023/11/22 06:03:15;;;;;;;18.80;10.70;;;;;;;-4.41;88.27;99097.05;105678;1256;72610;-30
2023/11/22 06:13:27;;;;;;;34.50;19.50;;;;;;;-4.62;89.83;99119.65;102685;1295;600045;-30
2023/11/22 06:15:55;;;;;;;30.90;20.10;;;;;;;-4.60;88.34;99121.14;105744;1257;61113;-31
2023/11/22 06:18:29;;;;;;;19.40;13.50;;;;;;;-4.39;88.36;99133.80;105668;1260;61045;-31
2023/11/22 06:20:57;;;;;;;29.20;16.90;;;;;;;-4.53;87.93;99138.29;105678;1257;72375;-30
2023/11/22 06:23:25;;;;;;;30.80;16.60;;;;;;;-4.54;88.19;99141.38;105712;1257;73232;-30
2023/11/22 06:25:55;;;;;;;42.90;22.80;;;;;;;-4.45;88.50;99146.95;104240;1254;3582132;-29
2023/11/22 06:28:22;;;;;;;61.20;30.50;;;;;;;-4.79;89.59;99147.90;105916;1257;61185;-31
2023/11/22 06:30:50;;;;;;;17.10;10.80;;;;;;;-4.75;90.56;99148.16;105718;1257;61223;-30
2023/11/22 06:33:18;;;;;;;39.10;28.70;;;;;;;-4.43;88.84;99149.80;105615;1251;61065;-30
2023/11/22 06:43:26;;;;;;;30.60;14.90;;;;;;;-4.81;88.78;99160.27;103032;1286;600086;-31
2023/11/22 06:53:35;;;;;;;48.30;16.50;;;;;;;-4.44;88.10;99174.73;102708;1290;600174;-30
2023/11/22 06:56:04;;;;;;;40.60;16.90;;;;;;;-4.55;87.62;99171.19;105586;1261;61273;-30
2023/11/22 06:58:32;;;;;;;33.40;18.00;;;;;;;-4.46;87.02;99173.06;105304;1257;61154;-31
2023/11/22 07:01:01;;;;;;;76.50;29.20;;;;;;;-4.68;87.93;99172.61;105698;1258;72220;-30
2023/11/22 07:03:28;;;;;;;31.30;13.70;;;;;;;-4.77;88.01;99172.42;105651;1252;74280;-29
2023/11/22 07:05:57;;;;;;;35.80;18.70;;;;;;;-4.78;88.31;99172.11;109472;1254;72714;-31
2023/11/22 07:08:26;;;;;;;54.80;24.40;;;;;;;-4.74;88.36;99174.25;107028;1250;59565;-30
2023/11/22 07:10:54;;;;;;;23.10;11.00;;;;;;;-4.52;87.98;99182.52;109528;1249;58653;-31
2023/11/22 07:13:24;;;;;;;20.80;10.60;;;;;;;-4.60;87.31;99188.23;109663;1251;70097;-31
2023/11/22 07:15:53;;;;;;;24.00;10.40;;;;;;;-4.05;85.73;99198.26;109628;1250;74309;-31
2023/11/22 07:18:24;;;;;;;29.40;14.80;;;;;;;-4.16;85.30;99193.55;109657;1250;71659;-31
2023/11/22 07:20:53;;;;;;;37.30;18.50;;;;;;;-4.62;86.78;99192.85;109692;1250;59282;-31
2023/11/22 07:23:25;;;;;;;32.70;16.40;;;;;;;-4.61;87.92;99200.10;109699;1251;59977;-31
2023/11/22 07:25:54;;;;;;;57.80;27.10;;;;;;;-4.80;88.51;99207.02;109688;1251;71789;-31
2023/11/22 07:28:21;;;;;;;13.50;8.50;;;;;;;-4.89;88.98;99206.15;109703;1251;73535;-30
2023/11/22 07:30:49;;;;;;;87.00;49.70;;;;;;;-4.93;89.07;99209.27;109634;1251;71398;-30
2023/11/22 07:33:17;;;;;;;19.10;10.50;;;;;;;-4.68;88.43;99213.77;109650;1250;58864;-31
2023/11/22 07:35:46;;;;;;;31.50;15.30;;;;;;;-4.33;86.94;99216.75;109670;1250;58753;-31
2023/11/22 07:38:14;;;;;;;24.00;11.20;;;;;;;-4.22;86.31;99218.41;109628;1251;73108;-31
2023/11/22 07:40:41;;;;;;;25.40;11.70;;;;;;;-4.25;86.61;99224.73;109670;1251;74382;-31
2023/11/22 07:43:09;;;;;;;13.20;8.00;;;;;;;-4.36;86.31;99225.44;109615;1251;71075;-31
2023/11/22 07:45:37;;;;;;;11.50;7.70;;;;;;;-4.50;87.50;99236.88;109612;1254;58887;-31
2023/11/22 07:48:04;;;;;;;10.80;7.30;;;;;;;-4.75;87.31;99235.92;109679;1250;58719;-31
2023/11/22 07:50:33;;;;;;;11.40;7.30;;;;;;;-4.86;88.22;99239.98;109629;1250;71890;-31
2023/11/22 07:53:04;;;;;;;12.90;7.10;;;;;;;-4.52;86.99;99245.71;109482;1251;73224;-31
2023/11/22 07:55:33;;;;;;;13.10;7.10;;;;;;;-4.27;85.39;99253.25;109624;1256;72714;-31
2023/11/22 07:58:01;;;;;;;7.90;4.70;;;;;;;-4.02;83.95;99258.41;109625;1250;58777;-31
2023/11/22 08:00:29;;;;;;;8.40;5.40;;;;;;;-4.18;83.88;99262.77;109650;1251;60004;-31
2023/11/22 08:02:57;;;;;;;10.00;5.40;;;;;;;-4.40;83.95;99262.63;109647;1252;73082;-31
2023/11/22 08:05:25;;;;;;;7.40;5.40;;;;;;;-4.63;84.60;99263.69;109584;1251;73031;-30
2023/11/22 08:07:53;;;;;;;12.70;6.40;;;;;;;-4.97;85.25;99259.78;109627;1251;71035;-31
2023/11/22 08:10:20;;;;;;;8.30;5.90;;;;;;;-4.89;85.10;99261.70;109558;1251;58867;-31
2023/11/22 08:12:49;;;;;;;12.50;6.50;;;;;;;-5.00;86.01;99267.29;109612;1251;59321;-31
2023/11/22 08:15:19;;;;;;;9.00;5.70;;;;;;;-4.78;84.98;99270.53;109600;1251;71648;-31
2023/11/22 08:17:47;;;;;;;7.90;5.10;;;;;;;-4.48;83.54;99274.98;109583;1250;74301;-31
2023/11/22 08:20:17;;;;;;;9.10;5.10;;;;;;;-4.67;83.42;99271.02;109619;1251;71523;-31
2023/11/22 08:22:47;;;;;;;8.90;5.60;;;;;;;-4.80;84.30;99272.08;109524;1254;58818;-31
2023/11/22 08:25:15;;;;;;;9.50;5.80;;;;;;;-4.87;84.12;99272.00;109550;1251;60033;-31
2023/11/22 08:27:43;;;;;;;16.60;10.40;;;;;;;-4.83;84.77;99272.46;109558;1251;71988;-31
2023/11/22 08:30:15;;;;;;;15.90;9.00;;;;;;;-4.96;84.84;99277.06;109665;1251;74287;-31
2023/11/22 08:32:47;;;;;;;11.80;7.20;;;;;;;-5.01;85.28;99278.82;109589;1250;71515;-31
2023/11/22 08:35:15;;;;;;;16.00;10.30;;;;;;;-5.05;85.41;99282.75;109406;1251;59591;-31
2023/11/22 08:37:43;;;;;;;12.00;7.10;;;;;;;-4.77;84.29;99284.05;109624;1251;62053;-31
2023/11/22 08:40:44;;;;;;;28.60;15.80;;;;;;;-4.27;81.90;99289.70;109652;1251;75261;-31
2023/11/22 08:43:04;;;;;;;16.60;10.20;;;;;;;-4.45;81.46;99288.98;109484;1251;74317;-31
2023/11/22 08:45:33;;;;;;;18.80;11.00;;;;;;;-4.47;82.05;99289.88;109628;1251;75334;-31
2023/11/22 08:48:00;;;;;;;27.10;13.10;;;;;;;-4.55;82.50;99294.23;109464;1252;59222;-32
2023/11/22 08:50:28;;;;;;;32.10;15.60;;;;;;;-4.54;82.02;99292.35;109706;1251;59981;-31
2023/11/22 08:52:57;;;;;;;9.60;5.70;;;;;;;-5.01;83.40;99291.52;109587;1251;71811;-31
2023/11/22 08:55:26;;;;;;;12.10;7.60;;;;;;;-4.89;83.33;99297.96;109514;1251;73372;-31
2023/11/22 08:57:53;;;;;;;18.20;10.00;;;;;;;-4.78;82.93;99298.82;109636;1251;71427;-31
2023/11/22 09:00:22;;;;;;;6.70;4.70;;;;;;;-5.03;83.47;99291.03;109580;1251;61278;-31
2023/11/22 09:02:50;;;;;;;8.90;6.00;;;;;;;-4.68;82.12;99297.14;109366;1251;58795;-31
2023/11/22 09:05:19;;;;;;;11.30;6.80;;;;;;;-4.14;80.30;99301.70;109663;1251;73109;-31
2023/11/22 09:07:46;;;;;;;7.00;4.70;;;;;;;-4.35;80.08;99297.13;109674;1251;74521;-31
2023/11/22 09:10:14;;;;;;;11.70;7.20;;;;;;;-4.14;80.05;99300.02;109635;1251;74606;-31
2023/11/22 09:12:43;;;;;;;9.40;5.80;;;;;;;-4.40;80.09;99300.09;109591;1254;58726;-31
2023/11/22 09:15:13;;;;;;;10.80;6.70;;;;;;;-4.62;81.21;99300.62;109636;1251;60028;-32
2023/11/22 09:17:46;;;;;;;9.60;5.90;;;;;;;-4.56;81.55;99301.70;109650;1251;73017;-31
2023/11/22 09:20:15;;;;;;;12.60;4.90;;;;;;;-4.08;81.43;99298.52;109527;1251;76710;-31
2023/11/22 09:22:48;;;;;;;6.70;4.50;;;;;;;-4.49;80.24;99293.61;109327;1250;73640;-31
2023/11/22 09:25:18;;;;;;;10.10;6.00;;;;;;;-4.90;81.71;99300.00;109510;1251;58773;-31
2023/11/22 09:27:48;;;;;;;16.30;8.70;;;;;;;-4.90;82.54;99299.66;109384;1251;60070;-31
2023/11/22 09:30:32;;;;;;;26.40;14.80;;;;;;;-4.65;80.63;99300.48;109375;1251;75008;-31
2023/11/22 09:33:05;;;;;;;21.50;9.20;;;;;;;-4.12;78.87;99301.33;109381;1251;75402;-31
2023/11/22 09:35:33;;;;;;;23.30;10.90;;;;;;;-4.07;78.93;99303.27;109342;1251;72681;-32
2023/11/22 09:38:11;;;;;;;18.50;10.40;;;;;;;-3.98;77.70;99307.86;109439;1254;58857;-32
2023/11/22 09:40:46;;;;;;;24.80;11.50;;;;;;;-4.54;79.65;99304.04;109454;1251;59430;-31
2023/11/22 09:43:17;;;;;;;22.00;11.20;;;;;;;-4.61;79.62;99305.33;109195;1260;75294;-32
2023/11/22 09:45:50;;;;;;;11.00;6.70;;;;;;;-4.65;79.57;99299.98;109436;1251;73509;-32
2023/11/22 09:48:24;;;;;;;10.40;6.30;;;;;;;-4.61;79.70;99301.77;109474;1257;76135;-32
2023/11/22 09:51:13;;;;;;;11.10;6.80;;;;;;;-4.69;79.99;99308.48;109471;1251;58829;-31
2023/11/22 09:53:41;;;;;;;14.20;8.30;;;;;;;-4.64;79.51;99308.42;109646;1251;60958;-32
2023/11/22 09:56:09;;;;;;;19.80;9.90;;;;;;;-4.71;79.31;99315.14;109484;1251;72998;-32
2023/11/22 09:58:39;;;;;;;9.50;4.80;;;;;;;-4.35;79.66;99325.27;109464;1251;73336;-31
2023/11/22 10:01:11;;;;;;;8.50;4.30;;;;;;;-3.74;77.66;99330.16;109387;1252;71524;-32
2023/11/22 10:03:39;;;;;;;6.30;3.90;;;;;;;-3.78;74.99;99326.17;109473;1251;58737;-32
2023/11/22 10:06:07;;;;;;;14.50;6.60;;;;;;;-3.82;75.09;99325.73;109594;1251;58770;-32
2023/11/22 10:08:38;;;;;;;10.20;4.90;;;;;;;-4.07;75.85;99324.46;109636;1251;73063;-32
2023/11/22 10:11:06;;;;;;;12.50;5.10;;;;;;;-4.13;76.44;99328.98;109497;1251;74329;-31
2023/11/22 10:13:34;;;;;;;9.50;5.30;;;;;;;-4.23;76.13;99330.01;109621;1251;71194;-32
2023/11/22 10:16:12;;;;;;;9.90;6.00;;;;;;;-4.08;77.00;99333.83;109581;1254;60699;-32
2023/11/22 10:18:47;;;;;;;10.90;6.80;;;;;;;-4.05;75.30;99336.48;109489;1251;60973;-32
2023/11/22 10:21:20;;;;;;;7.30;4.70;;;;;;;-4.27;75.87;99337.67;109484;1257;72059;-32
2023/11/22 10:23:48;;;;;;;6.80;4.20;;;;;;;-4.20;75.95;99332.84;109410;1251;73514;-32
2023/11/22 10:26:17;;;;;;;8.50;5.20;;;;;;;-4.23;75.42;99335.09;109636;1251;72733;-32
2023/11/22 10:28:45;;;;;;;6.00;4.30;;;;;;;-4.30;75.27;99340.11;109586;1254;61085;-31
2023/11/22 10:31:12;;;;;;;7.50;3.20;;;;;;;-4.31;75.61;99342.34;109603;1251;59989;-32
2023/11/22 10:33:43;;;;;;;9.60;3.90;;;;;;;-4.36;74.74;99341.90;109360;1251;73008;-32
2023/11/22 10:36:12;;;;;;;11.70;3.90;;;;;;;-4.61;74.46;99345.81;109482;1254;75330;-29
2023/11/22 10:38:39;;;;;;;6.10;3.10;;;;;;;-4.36;75.03;99354.27;109389;1254;72124;-30
2023/11/22 10:41:08;;;;;;;5.60;3.40;;;;;;;-4.43;75.29;99354.55;109283;1255;60021;-31
2023/11/22 10:43:35;;;;;;;6.20;3.40;;;;;;;-4.61;75.34;99356.01;109451;1254;60054;-30
2023/11/22 10:46:04;;;;;;;5.00;2.80;;;;;;;-4.64;75.16;99366.71;109433;1254;72582;-30
2023/11/22 10:48:33;;;;;;;7.30;3.10;;;;;;;-4.66;75.22;99365.22;109434;1253;74401;-30
2023/11/22 10:51:05;;;;;;;7.50;3.80;;;;;;;-4.72;74.74;99363.78;109361;1254;73541;-31
2023/11/22 10:53:34;;;;;;;14.00;6.40;;;;;;;-4.90;74.84;99364.87;108477;1254;1002248;-30
2023/11/22 10:56:22;;;;;;;21.30;9.90;;;;;;;-5.07;75.03;99362.03;109104;1254;60192;-30
2023/11/22 10:58:51;;;;;;;7.30;4.00;;;;;;;-4.86;75.39;99362.60;109273;1256;73373;-30
2023/11/22 11:01:21;;;;;;;3.10;1.90;;;;;;;-4.37;74.36;99361.91;109133;1254;75828;-31
2023/11/22 11:03:52;;;;;;;3.50;2.30;;;;;;;-4.02;71.56;99360.52;109233;1255;73611;-31
2023/11/22 11:06:20;;;;;;;10.50;6.00;;;;;;;-3.83;71.44;99364.95;109255;1257;59002;-30
2023/11/22 11:08:48;;;;;;;10.00;5.40;;;;;;;-4.03;71.14;99362.05;109129;1254;62055;-30
2023/11/22 11:11:16;;;;;;;7.20;4.70;;;;;;;-4.13;70.26;99361.36;109177;1254;73854;-30
2023/11/22 11:13:44;;;;;;;14.10;8.40;;;;;;;-4.42;71.17;99368.77;109140;1254;74392;-30
2023/11/22 11:16:11;;;;;;;9.90;5.20;;;;;;;-4.29;71.95;99371.11;109242;1254;71629;-31
2023/11/22 11:18:39;;;;;;;5.20;3.60;;;;;;;-4.43;72.42;99370.66;109229;1255;59277;-31
2023/11/22 11:21:08;;;;;;;4.30;3.00;;;;;;;-4.59;72.50;99363.77;109174;1254;60069;-30
2023/11/22 11:23:36;;;;;;;6.80;2.40;;;;;;;-4.49;73.74;99363.45;109285;1254;74244;-30
2023/11/22 11:26:17;;;;;;;11.30;6.70;;;;;;;-4.51;73.48;99361.29;109138;1257;76625;-30
2023/11/22 11:32:42;;;;;;;3.40;2.00;;;;;;;-4.45;73.61;99368.48;109155;1257;60341;-30
2023/11/22 11:35:10;;;;;;;10.00;5.90;;;;;;;-4.65;73.79;99373.67;109104;1256;60053;-30
2023/11/22 11:37:38;;;;;;;5.30;3.60;;;;;;;-4.69;73.50;99377.64;109067;1257;75392;-30
2023/11/22 11:40:34;;;;;;;12.80;7.30;;;;;;;-4.74;73.35;99379.55;109118;1256;76458;-30
2023/11/22 11:43:02;;;;;;;7.40;4.50;;;;;;;-4.74;73.73;99372.77;109085;1257;72667;-31
2023/11/22 11:45:31;;;;;;;7.80;4.00;;;;;;;-4.73;73.20;99373.46;109161;1256;60198;-30
2023/11/22 11:47:59;;;;;;;5.60;3.40;;;;;;;-4.71;73.39;99373.93;109247;1256;59991;-30
2023/11/22 11:50:26;;;;;;;7.40;4.00;;;;;;;-4.54;74.04;99374.55;109252;1256;75737;-30
2023/11/22 11:52:55;;;;;;;3.90;2.70;;;;;;;-4.24;72.45;99377.32;109315;1255;75401;-30
2023/11/22 11:55:22;;;;;;;6.00;2.50;;;;;;;-3.99;72.00;99380.99;109326;1257;74800;-30
2023/11/22 11:57:52;;;;;;;5.80;2.80;;;;;;;-3.89;71.25;99389.83;109337;1255;60151;-31
2023/11/22 12:00:20;;;;;;;7.30;3.90;;;;;;;-3.98;71.65;99385.89;109109;1257;58769;-30
2023/11/22 12:02:48;;;;;;;6.80;4.40;;;;;;;-3.96;71.48;99383.83;109193;1256;75855;-31
2023/11/22 12:05:20;;;;;;;9.80;5.40;;;;;;;-4.29;72.72;99381.29;109289;1256;74322;-30
2023/11/22 12:07:48;;;;;;;8.30;3.30;;;;;;;-4.44;73.30;99383.72;109103;1255;73643;-30
2023/11/22 12:10:16;;;;;;;3.80;2.20;;;;;;;-4.34;73.55;99387.63;109253;1256;60203;-31
2023/11/22 12:12:48;;;;;;;8.00;4.80;;;;;;;-4.44;73.20;99395.25;109323;1257;61365;-31
2023/11/22 12:15:15;;;;;;;10.60;4.10;;;;;;;-4.62;74.24;99400.74;109324;1257;74733;-30
2023/11/22 12:17:43;;;;;;;9.20;4.00;;;;;;;-4.66;74.04;99403.85;109105;1257;76649;-30
2023/11/22 12:20:21;;;;;;;7.70;3.80;;;;;;;-4.80;74.07;99409.63;109327;1256;71733;-30
2023/11/22 12:22:49;;;;;;;5.70;3.50;;;;;;;-4.71;74.84;99415.44;109133;1255;58948;-30
2023/11/22 12:25:16;;;;;;;9.10;4.70;;;;;;;-4.73;74.04;99417.83;109353;1257;60050;-31
2023/11/22 12:27:47;;;;;;;4.40;2.40;;;;;;;-4.69;74.10;99421.33;109333;1255;73590;-31
2023/11/22 12:30:35;;;;;;;5.00;2.40;;;;;;;-4.65;73.74;99418.77;109190;1255;75588;-31